»·PEaware :: N205DE KFOT-O69

N205DE :: KFOT-O69

FLIGHT INFORMATION

Flight Status: Arrived
Operator: Privately registered:
United States
More flights under this callsign
Pilot: Lee W. (44)
Aircraft: MOONEY M-20 201 202 205 220 ATS MSE
(M20P)
More flights by this aircraft type
Origin: KFOT Rohnerville
United States
Destination: O69 Petaluma Mun
United States
More flights between these airports :: More routes between these airports
Route: OLRIO V27 ENI V494 STS
File this flight plan on PilotEdge
Remarks:
Altitude:
(Current/Filed)
7,000ft
Speed:
(Current/Filed)
160kts
Departed: 11-Mar-12 07:11 PM
Arrived: 11-Mar-12 08:16 PM
Distance/Time
Traveled:
155nm/1:05
Distance/Time
To Go:
Arrived

Flight Plot

Page will automatically refresh every two minutes.


Map Options




Map Legend


Flown Route
Filed Route
Departure Airport
Arrival Airport
Navaid (VOR, NDB)
Fix

Horizontal Profiles

Position Reports

Time Latitude Longitude Heading Altitude Ground
Speed
11-Mar-12 19:09 40.494766 -124.144868 145 2514ft 110kts
11-Mar-12 19:10 40.468410 -124.122625 149 3017ft 114kts
11-Mar-12 19:11 40.440997 -124.102053 151 3510ft 117kts
11-Mar-12 19:12 40.411992 -124.081931 153 4010ft 118kts
11-Mar-12 19:13 40.382548 -124.062483 153 4506ft 119kts
11-Mar-12 19:14 40.352446 -124.043209 154 5007ft 120kts
11-Mar-12 19:15 40.322279 -124.024605 155 5502ft 121kts
11-Mar-12 19:16 40.291661 -124.005945 155 6001ft 121kts
11-Mar-12 19:17 40.260837 -123.987292 155 6500ft 122kts
11-Mar-12 19:18 40.229731 -123.969915 154 7001ft 122kts
11-Mar-12 19:19 40.195857 -123.949007 155 7073ft 149kts
11-Mar-12 19:20 40.156049 -123.924809 155 7070ft 164kts
11-Mar-12 19:21 40.113085 -123.898971 156 6981ft 172kts
11-Mar-12 19:22 40.070420 -123.872386 155 6981ft 173kts
11-Mar-12 19:23 40.026882 -123.845861 156 6981ft 173kts
11-Mar-12 19:24 39.983121 -123.819567 156 6981ft 173kts
11-Mar-12 19:25 39.939245 -123.793401 156 6981ft 173kts
11-Mar-12 19:26 39.895259 -123.767281 156 6979ft 174kts
11-Mar-12 19:27 39.858568 -123.745548 156 6978ft 175kts
11-Mar-12 19:28 39.814205 -123.719308 156 6979ft 176kts
11-Mar-12 19:29 39.769208 -123.692731 156 6974ft 178kts
11-Mar-12 19:30 39.723891 -123.666014 156 6977ft 180kts
11-Mar-12 19:31 39.677900 -123.638955 156 6973ft 181kts
11-Mar-12 19:32 39.631731 -123.611843 156 6976ft 182kts
11-Mar-12 19:33 39.585795 -123.584902 156 6965ft 182kts
11-Mar-12 19:34 39.532138 -123.553477 156 6972ft 182kts
11-Mar-12 19:35 39.493617 -123.530951 157 6970ft 183kts
11-Mar-12 19:36 39.447844 -123.504215 157 6969ft 182kts
11-Mar-12 19:37 39.406829 -123.480297 157 6974ft 182kts
11-Mar-12 19:38 39.360723 -123.453445 157 6973ft 182kts
11-Mar-12 19:39 39.314537 -123.426593 157 6978ft 182kts
11-Mar-12 19:40 39.268252 -123.399911 157 6970ft 182kts
11-Mar-12 19:41 39.222213 -123.373390 157 6971ft 182kts
11-Mar-12 19:42 39.175981 -123.346668 157 6971ft 182kts
11-Mar-12 19:43 39.129862 -123.319993 156 6978ft 182kts
11-Mar-12 19:44 39.084144 -123.293563 156 6965ft 183kts
11-Mar-12 19:45 39.038360 -123.264185 148 6965ft 182kts
11-Mar-12 19:46 38.996077 -123.228774 147 6969ft 180kts
11-Mar-12 19:47 38.956222 -123.195485 147 6968ft 165kts
11-Mar-12 19:48 38.918533 -123.164115 147 6970ft 158kts
11-Mar-12 19:49 38.881972 -123.133779 147 6968ft 154kts
11-Mar-12 19:50 38.846232 -123.104119 148 6973ft 154kts
11-Mar-12 19:51 38.810229 -123.074313 150 6974ft 153kts
11-Mar-12 19:52 38.774777 -123.045074 151 6976ft 152kts
11-Mar-12 19:53 38.739469 -123.016015 152 6968ft 150kts
11-Mar-12 19:54 38.704927 -122.987631 152 6971ft 148kts
11-Mar-12 19:55 38.671540 -122.958318 150 6970ft 147kts
11-Mar-12 19:56 38.637954 -122.928394 150 6970ft 147kts
11-Mar-12 19:57 38.604733 -122.898800 150 6975ft 147kts
11-Mar-12 19:58 38.575135 -122.871517 150 6970ft 147kts
11-Mar-12 19:59 38.542227 -122.841607 150 6970ft 146kts
11-Mar-12 20:00 38.508847 -122.811604 150 6970ft 146kts
11-Mar-12 20:01 38.474637 -122.784267 154 6970ft 146kts
11-Mar-12 20:03 38.405474 -122.728097 151 6228ft 149kts
11-Mar-12 20:04 38.387748 -122.696617 126 5620ft 120kts
11-Mar-12 20:05 38.368155 -122.654691 126 4646ft 117kts
11-Mar-12 20:06 38.352376 -122.627309 139 4006ft 117kts
11-Mar-12 20:07 38.329683 -122.597963 139 3237ft 119kts
11-Mar-12 20:08 38.307368 -122.569358 139 2444ft 108kts
11-Mar-12 20:09 38.287488 -122.543706 139 1729ft 92kts
11-Mar-12 20:10 38.268457 -122.533494 214 1036ft 81kts
11-Mar-12 20:11 38.252095 -122.545643 207 852ft 60kts
11-Mar-12 20:12 38.236275 -122.558673 241 409ft 62kts
11-Mar-12 20:13 38.243328 -122.579675 301 409ft 81kts
11-Mar-12 20:14 38.254534 -122.599606 303 116ft 58kts
11-Mar-12 20:15 38.257462 -122.605947 303 90ft 10kts
11-Mar-12 20:16 38.258212 -122.608707 202 89ft 0kts

Navigation Log

Ident Type
Flight plan parsing failed, navigation log unavailable